Gillette, WY (82716)

2:23 AM MDT on July 28, 2016 (GMT -0600)
Gillette-Campbell County | | Change Station

Elev 4364 ft 44.34 °N, 105.54 °W | Updated 30 minutes ago

Clear
Clear
62 °F
Feels Like 62 °F
N
12
Wind Variable Wind from South

Today
High -- | Low -- °F
--% Chance of Precip.
Yesterday
High -- | Low -- °F
Precip. -- in
Pressure 30.03 in
Visibility 10.0 miles
Clouds Clear
Dew Point 61 °F
Humidity 96%
Rainfall 0.05 in
Snow Depth Not available.
5:45 AM 8:32 PM
Waning Crescent, 34% visible
METAR KGCC 280753Z AUTO 18010KT 10SM CLR 17/16 A3018 RMK AO2 LTG DSNT E RAE07 TSE07 SLP169 P0001 T01670161 $
Pressure 30.03 in
Visibility 10.0 miles
Clouds Clear
Dew Point 61 °F
Humidity 96%
Rainfall 0.05 in
Snow Depth Not available.
5:45 AM 8:32 PM
Waning Crescent, 34% visible
METAR KGCC 280753Z AUTO 18010KT 10SM CLR 17/16 A3018 RMK AO2 LTG DSNT E RAE07 TSE07 SLP169 P0001 T01670161 $

10-Day Weather Forecast

Almanac

Astronomy

Jul. 28, 2016 Rise Set
Actual Time
Civil Twilight
Nautical Twilight
Astronomical Twilight
Moon
Length of Visible Light
Length of Day
Tomorrow will be .
, % of the Moon is Illuminated

Today's Extremes

State Highs State Lows

Community

WunderPhotos

Upload Photos

1,928,070 photos uploaded!

WunderBlog® & News

Nearby

Air Quality

  Air Quality AQ Index Pollutant
Not available.

Snow Depth

Station Depth Elevation

Earthquake Activity

City Distance Mag. Time & Date
Minimum magnitude displayed is 2.5.

Coastal Water Temperatures

Place Temperature

Stations

Nearby Weather Stations

Station Location Temp. Windchill Dew Point Humidity Wind Precip. Elev Updated Type
                   

Watches & Warnings

There are currently no watches in effect.